sensor_id;sensor_type;location;lat;lon;timestamp;pressure;altitude;pressure_sealevel;temperature;humidity
33795;BME280;51430;52.242;21.118;2023-05-14T00:00:45;101000.22;;;11.06;76.71
33795;BME280;51430;52.242;21.118;2023-05-14T00:03:26;100999.45;;;10.99;76.97
33795;BME280;51430;52.242;21.118;2023-05-14T00:05:54;101002.08;;;11.01;77.13
33795;BME280;51430;52.242;21.118;2023-05-14T00:08:22;101002.26;;;10.99;77.27
33795;BME280;51430;52.242;21.118;2023-05-14T00:10:50;100997.13;;;11.02;77.25
33795;BME280;51430;52.242;21.118;2023-05-14T00:13:18;101000.13;;;11.02;77.24
33795;BME280;51430;52.242;21.118;2023-05-14T00:15:46;101005.94;;;10.99;77.17
33795;BME280;51430;52.242;21.118;2023-05-14T00:18:14;101008.71;;;10.91;77.33
33795;BME280;51430;52.242;21.118;2023-05-14T00:20:42;101000.17;;;10.93;77.12
33795;BME280;51430;52.242;21.118;2023-05-14T00:23:10;100997.88;;;10.97;77.05
33795;BME280;51430;52.242;21.118;2023-05-14T00:25:37;100994.61;;;10.98;77.02
33795;BME280;51430;52.242;21.118;2023-05-14T00:28:05;100994.84;;;10.95;77.37
33795;BME280;51430;52.242;21.118;2023-05-14T00:30:33;100994.05;;;10.91;77.61
33795;BME280;51430;52.242;21.118;2023-05-14T00:33:02;100996.73;;;10.85;77.97
33795;BME280;51430;52.242;21.118;2023-05-14T00:35:30;100989.66;;;10.79;78.10
33795;BME280;51430;52.242;21.118;2023-05-14T00:37:58;100994.83;;;10.75;78.45
33795;BME280;51430;52.242;21.118;2023-05-14T00:40:26;100992.55;;;10.67;78.45
33795;BME280;51430;52.242;21.118;2023-05-14T00:42:55;100992.39;;;10.61;78.50
33795;BME280;51430;52.242;21.118;2023-05-14T00:45:23;100990.42;;;10.57;78.65
33795;BME280;51430;52.242;21.118;2023-05-14T00:47:52;100988.45;;;10.50;78.90
33795;BME280;51430;52.242;21.118;2023-05-14T00:50:20;100991.55;;;10.40;79.30
33795;BME280;51430;52.242;21.118;2023-05-14T00:52:49;100994.34;;;10.35;79.87
33795;BME280;51430;52.242;21.118;2023-05-14T00:55:17;100989.56;;;10.33;79.94
33795;BME280;51430;52.242;21.118;2023-05-14T00:57:45;100987.96;;;10.26;79.91
33795;BME280;51430;52.242;21.118;2023-05-14T01:00:13;100988.30;;;10.23;80.21
33795;BME280;51430;52.242;21.118;2023-05-14T01:02:41;100990.52;;;10.21;80.28
33795;BME280;51430;52.242;21.118;2023-05-14T01:05:09;100989.69;;;10.18;80.18
33795;BME280;51430;52.242;21.118;2023-05-14T01:10:16;100984.29;;;10.07;80.52
33795;BME280;51430;52.242;21.118;2023-05-14T01:13:12;100986.98;;;10.03;81.08
33795;BME280;51430;52.242;21.118;2023-05-14T01:15:41;100984.27;;;9.90;81.57
33795;BME280;51430;52.242;21.118;2023-05-14T01:18:13;100984.61;;;9.91;81.89
33795;BME280;51430;52.242;21.118;2023-05-14T01:20:44;100982.63;;;9.89;81.83
33795;BME280;51430;52.242;21.118;2023-05-14T01:23:12;100985.74;;;9.83;82.18
33795;BME280;51430;52.242;21.118;2023-05-14T01:25:40;100984.43;;;9.79;82.59
33795;BME280;51430;52.242;21.118;2023-05-14T01:28:14;100986.69;;;9.77;82.96
33795;BME280;51430;52.242;21.118;2023-05-14T01:30:56;100983.42;;;9.70;83.33
33795;BME280;51430;52.242;21.118;2023-05-14T01:33:26;100980.88;;;9.64;83.89
33795;BME280;51430;52.242;21.118;2023-05-14T01:35:55;100984.33;;;9.59;84.01
33795;BME280;51430;52.242;21.118;2023-05-14T01:38:25;100981.49;;;9.57;84.38
33795;BME280;51430;52.242;21.118;2023-05-14T01:40:57;100978.54;;;9.54;84.32
33795;BME280;51430;52.242;21.118;2023-05-14T01:43:26;100978.33;;;9.52;84.58
33795;BME280;51430;52.242;21.118;2023-05-14T01:45:54;100973.67;;;9.54;84.56
33795;BME280;51430;52.242;21.118;2023-05-14T01:48:22;100970.20;;;9.54;84.45
33795;BME280;51430;52.242;21.118;2023-05-14T01:50:50;100969.78;;;9.52;84.35
33795;BME280;51430;52.242;21.118;2023-05-14T01:53:17;100968.98;;;9.48;84.25
33795;BME280;51430;52.242;21.118;2023-05-14T01:55:45;100968.56;;;9.41;84.13
33795;BME280;51430;52.242;21.118;2023-05-14T01:58:13;100963.70;;;9.38;84.37
33795;BME280;51430;52.242;21.118;2023-05-14T02:00:40;100960.46;;;9.34;84.61
33795;BME280;51430;52.242;21.118;2023-05-14T02:03:08;100961.20;;;9.31;84.71
33795;BME280;51430;52.242;21.118;2023-05-14T02:05:36;100960.76;;;9.26;85.11
33795;BME280;51430;52.242;21.118;2023-05-14T02:08:04;100960.38;;;9.27;85.38
33795;BME280;51430;52.242;21.118;2023-05-14T02:10:32;100958.54;;;9.26;85.36
33795;BME280;51430;52.242;21.118;2023-05-14T02:12:59;100957.38;;;9.19;85.40
33795;BME280;51430;52.242;21.118;2023-05-14T02:15:27;100962.91;;;9.14;86.01
33795;BME280;51430;52.242;21.118;2023-05-14T02:17:55;100963.10;;;9.14;86.43
33795;BME280;51430;52.242;21.118;2023-05-14T02:20:22;100964.29;;;9.14;86.38
33795;BME280;51430;52.242;21.118;2023-05-14T02:22:51;100961.60;;;9.12;86.11
33795;BME280;51430;52.242;21.118;2023-05-14T02:25:18;100960.09;;;9.06;86.33
33795;BME280;51430;52.242;21.118;2023-05-14T02:27:47;100958.00;;;9.03;86.48
33795;BME280;51430;52.242;21.118;2023-05-14T02:30:15;100954.85;;;9.01;86.53
33795;BME280;51430;52.242;21.118;2023-05-14T02:32:43;100955.52;;;8.98;86.66
33795;BME280;51430;52.242;21.118;2023-05-14T02:35:11;100956.52;;;8.93;86.81
33795;BME280;51430;52.242;21.118;2023-05-14T02:37:39;100952.80;;;8.86;87.04
33795;BME280;51430;52.242;21.118;2023-05-14T02:40:07;100949.15;;;8.80;87.50
33795;BME280;51430;52.242;21.118;2023-05-14T02:42:37;100950.08;;;8.76;87.75
33795;BME280;51430;52.242;21.118;2023-05-14T02:45:05;100953.34;;;8.74;88.01
33795;BME280;51430;52.242;21.118;2023-05-14T02:47:33;100950.59;;;8.73;88.33
33795;BME280;51430;52.242;21.118;2023-05-14T02:50:05;100948.29;;;8.71;88.36
33795;BME280;51430;52.242;21.118;2023-05-14T02:52:33;100949.36;;;8.70;88.72
33795;BME280;51430;52.242;21.118;2023-05-14T02:55:01;100950.76;;;8.70;88.74
33795;BME280;51430;52.242;21.118;2023-05-14T03:04:53;100950.52;;;8.57;89.36
33795;BME280;51430;52.242;21.118;2023-05-14T03:07:21;100955.33;;;8.52;89.66
33795;BME280;51430;52.242;21.118;2023-05-14T03:09:48;100951.16;;;8.64;89.59
33795;BME280;51430;52.242;21.118;2023-05-14T03:12:16;100951.76;;;8.74;89.25
33795;BME280;51430;52.242;21.118;2023-05-14T03:14:44;100956.56;;;8.81;88.85
33795;BME280;51430;52.242;21.118;2023-05-14T03:17:12;100955.46;;;8.88;88.45
33795;BME280;51430;52.242;21.118;2023-05-14T03:19:39;100954.33;;;8.92;88.04
33795;BME280;51430;52.242;21.118;2023-05-14T03:22:07;100954.75;;;8.97;87.89
33795;BME280;51430;52.242;21.118;2023-05-14T03:24:38;100953.39;;;9.02;87.37
33795;BME280;51430;52.242;21.118;2023-05-14T03:27:06;100953.01;;;9.05;87.25
33795;BME280;51430;52.242;21.118;2023-05-14T03:29:33;100950.61;;;9.08;87.13
33795;BME280;51430;52.242;21.118;2023-05-14T03:32:01;100948.83;;;9.08;87.07
33795;BME280;51430;52.242;21.118;2023-05-14T03:34:29;100945.70;;;9.11;87.19
33795;BME280;51430;52.242;21.118;2023-05-14T03:36:56;100945.34;;;9.14;87.06
33795;BME280;51430;52.242;21.118;2023-05-14T03:39:24;100946.45;;;9.18;86.93
33795;BME280;51430;52.242;21.118;2023-05-14T03:41:52;100948.78;;;9.26;86.59
33795;BME280;51430;52.242;21.118;2023-05-14T03:44:20;100947.73;;;9.37;86.13
33795;BME280;51430;52.242;21.118;2023-05-14T03:46:48;100948.89;;;9.47;85.96
33795;BME280;51430;52.242;21.118;2023-05-14T03:49:16;100948.33;;;9.56;85.49
33795;BME280;51430;52.242;21.118;2023-05-14T03:51:44;100949.36;;;9.64;85.17
33795;BME280;51430;52.242;21.118;2023-05-14T03:54:11;100946.73;;;9.72;84.64
33795;BME280;51430;52.242;21.118;2023-05-14T03:56:39;100945.57;;;9.83;84.43
33795;BME280;51430;52.242;21.118;2023-05-14T03:59:07;100940.70;;;9.91;84.08
33795;BME280;51430;52.242;21.118;2023-05-14T04:01:35;100944.37;;;9.99;83.82
33795;BME280;51430;52.242;21.118;2023-05-14T04:04:03;100940.06;;;10.09;83.56
33795;BME280;51430;52.242;21.118;2023-05-14T04:06:32;100941.19;;;10.19;83.37
33795;BME280;51430;52.242;21.118;2023-05-14T04:08:59;100937.70;;;10.29;83.10
33795;BME280;51430;52.242;21.118;2023-05-14T04:11:27;100939.15;;;10.41;82.72
33795;BME280;51430;52.242;21.118;2023-05-14T04:13:55;100930.39;;;10.50;82.13
33795;BME280;51430;52.242;21.118;2023-05-14T04:16:23;100931.88;;;10.56;81.33
33795;BME280;51430;52.242;21.118;2023-05-14T04:18:51;100935.71;;;10.67;80.84
33795;BME280;51430;52.242;21.118;2023-05-14T04:21:18;100934.48;;;10.77;80.65
33795;BME280;51430;52.242;21.118;2023-05-14T04:23:46;100937.92;;;10.86;80.65
33795;BME280;51430;52.242;21.118;2023-05-14T04:26:14;100938.15;;;10.95;80.15
33795;BME280;51430;52.242;21.118;2023-05-14T04:28:42;100939.80;;;11.07;79.93
33795;BME280;51430;52.242;21.118;2023-05-14T04:31:11;100940.71;;;11.18;79.37
33795;BME280;51430;52.242;21.118;2023-05-14T04:33:38;100943.00;;;11.26;78.42
33795;BME280;51430;52.242;21.118;2023-05-14T04:36:06;100942.13;;;11.38;78.47
33795;BME280;51430;52.242;21.118;2023-05-14T04:38:35;100942.70;;;11.50;78.50
33795;BME280;51430;52.242;21.118;2023-05-14T04:41:03;100947.48;;;11.59;76.39
33795;BME280;51430;52.242;21.118;2023-05-14T04:43:31;100947.21;;;11.70;76.30
33795;BME280;51430;52.242;21.118;2023-05-14T04:45:59;100948.73;;;11.81;75.84
33795;BME280;51430;52.242;21.118;2023-05-14T04:48:27;100945.38;;;11.96;75.78
33795;BME280;51430;52.242;21.118;2023-05-14T04:50:54;100945.89;;;12.13;76.06
33795;BME280;51430;52.242;21.118;2023-05-14T04:53:22;100950.24;;;12.30;75.45
33795;BME280;51430;52.242;21.118;2023-05-14T04:55:50;100945.79;;;12.42;74.00
33795;BME280;51430;52.242;21.118;2023-05-14T04:58:18;100942.44;;;12.52;72.97
33795;BME280;51430;52.242;21.118;2023-05-14T05:00:46;100942.70;;;12.60;71.92
33795;BME280;51430;52.242;21.118;2023-05-14T05:03:13;100943.67;;;12.66;71.14
33795;BME280;51430;52.242;21.118;2023-05-14T05:05:41;100947.72;;;12.77;70.16
33795;BME280;51430;52.242;21.118;2023-05-14T05:08:09;100948.05;;;12.93;69.87
33795;BME280;51430;52.242;21.118;2023-05-14T05:10:37;100944.91;;;13.09;69.98
33795;BME280;51430;52.242;21.118;2023-05-14T05:13:05;100943.27;;;13.32;70.07
33795;BME280;51430;52.242;21.118;2023-05-14T05:15:33;100941.83;;;13.50;68.91
33795;BME280;51430;52.242;21.118;2023-05-14T05:18:02;100944.17;;;13.61;67.63
33795;BME280;51430;52.242;21.118;2023-05-14T05:20:30;100943.93;;;13.77;67.37
33795;BME280;51430;52.242;21.118;2023-05-14T05:22:58;100946.52;;;13.93;66.30
33795;BME280;51430;52.242;21.118;2023-05-14T05:25:27;100949.79;;;14.09;65.31
33795;BME280;51430;52.242;21.118;2023-05-14T05:27:54;100949.40;;;14.19;64.59
33795;BME280;51430;52.242;21.118;2023-05-14T05:30:22;100948.48;;;14.41;64.75
33795;BME280;51430;52.242;21.118;2023-05-14T05:32:50;100943.44;;;14.74;64.73
33795;BME280;51430;52.242;21.118;2023-05-14T05:35:18;100945.45;;;15.12;64.02
33795;BME280;51430;52.242;21.118;2023-05-14T05:37:46;100944.17;;;15.77;61.63
33795;BME280;51430;52.242;21.118;2023-05-14T05:40:14;100944.58;;;16.73;58.80
33795;BME280;51430;52.242;21.118;2023-05-14T05:42:42;100948.31;;;17.66;56.06
33795;BME280;51430;52.242;21.118;2023-05-14T05:45:10;100948.81;;;18.40;54.03
33795;BME280;51430;52.242;21.118;2023-05-14T05:47:39;100947.14;;;19.09;52.75
33795;BME280;51430;52.242;21.118;2023-05-14T05:50:07;100947.48;;;19.70;51.05
33795;BME280;51430;52.242;21.118;2023-05-14T05:52:36;100950.46;;;20.12;49.25
33795;BME280;51430;52.242;21.118;2023-05-14T05:55:05;100955.16;;;20.39;47.65
33795;BME280;51430;52.242;21.118;2023-05-14T05:57:33;100954.20;;;20.69;47.36
33795;BME280;51430;52.242;21.118;2023-05-14T06:00:01;100952.02;;;21.05;46.31
33795;BME280;51430;52.242;21.118;2023-05-14T06:02:42;100955.17;;;21.42;44.84
33795;BME280;51430;52.242;21.118;2023-05-14T06:05:11;100957.56;;;21.70;44.02
33795;BME280;51430;52.242;21.118;2023-05-14T06:07:39;100957.41;;;22.09;43.39
33795;BME280;51430;52.242;21.118;2023-05-14T06:10:07;100956.55;;;22.24;43.07
33795;BME280;51430;52.242;21.118;2023-05-14T06:12:34;100956.98;;;22.23;42.80
33795;BME280;51430;52.242;21.118;2023-05-14T06:15:02;100955.77;;;22.50;42.63
33795;BME280;51430;52.242;21.118;2023-05-14T06:17:30;100953.38;;;22.84;41.52
33795;BME280;51430;52.242;21.118;2023-05-14T06:19:58;100950.95;;;23.18;40.88
33795;BME280;51430;52.242;21.118;2023-05-14T06:22:26;100953.97;;;23.43;40.59
33795;BME280;51430;52.242;21.118;2023-05-14T06:24:54;100953.51;;;23.51;39.95
33795;BME280;51430;52.242;21.118;2023-05-14T06:27:22;100953.83;;;23.24;39.67
33795;BME280;51430;52.242;21.118;2023-05-14T06:29:50;100953.81;;;23.13;39.86
33795;BME280;51430;52.242;21.118;2023-05-14T06:32:18;100956.89;;;23.16;39.37
33795;BME280;51430;52.242;21.118;2023-05-14T06:34:47;100954.09;;;23.00;39.12
33795;BME280;51430;52.242;21.118;2023-05-14T06:37:15;100956.19;;;22.83;39.28
33795;BME280;51430;52.242;21.118;2023-05-14T06:39:43;100955.05;;;23.31;39.09
33795;BME280;51430;52.242;21.118;2023-05-14T06:42:17;100955.77;;;23.63;38.99
33795;BME280;51430;52.242;21.118;2023-05-14T06:44:45;100952.84;;;23.65;37.17
33795;BME280;51430;52.242;21.118;2023-05-14T06:47:13;100953.05;;;23.27;37.60
33795;BME280;51430;52.242;21.118;2023-05-14T06:49:42;100952.48;;;23.01;38.06
33795;BME280;51430;52.242;21.118;2023-05-14T06:52:11;100955.33;;;22.82;38.50
33795;BME280;51430;52.242;21.118;2023-05-14T06:54:39;100950.44;;;23.10;38.32
33795;BME280;51430;52.242;21.118;2023-05-14T06:57:07;100948.58;;;23.51;37.58
33795;BME280;51430;52.242;21.118;2023-05-14T06:59:35;100948.17;;;23.57;36.85
33795;BME280;51430;52.242;21.118;2023-05-14T07:02:03;100946.48;;;23.43;36.14
33795;BME280;51430;52.242;21.118;2023-05-14T07:04:31;100947.02;;;23.20;36.05
33795;BME280;51430;52.242;21.118;2023-05-14T07:06:59;100945.33;;;22.86;35.17
33795;BME280;51430;52.242;21.118;2023-05-14T07:09:28;100944.98;;;23.08;35.45
33795;BME280;51430;52.242;21.118;2023-05-14T07:11:55;100945.15;;;23.61;35.24
33795;BME280;51430;52.242;21.118;2023-05-14T07:14:23;100944.82;;;23.99;34.72
33795;BME280;51430;52.242;21.118;2023-05-14T07:16:51;100945.85;;;24.02;33.05
33795;BME280;51430;52.242;21.118;2023-05-14T07:19:19;100944.27;;;23.91;32.91
33795;BME280;51430;52.242;21.118;2023-05-14T07:21:47;100943.73;;;24.06;32.66
33795;BME280;51430;52.242;21.118;2023-05-14T07:24:15;100938.59;;;23.87;32.65
33795;BME280;51430;52.242;21.118;2023-05-14T07:26:43;100935.90;;;24.12;33.02
33795;BME280;51430;52.242;21.118;2023-05-14T07:29:12;100937.14;;;24.50;32.63
33795;BME280;51430;52.242;21.118;2023-05-14T07:31:40;100936.10;;;24.74;32.27
33795;BME280;51430;52.242;21.118;2023-05-14T07:34:08;100933.82;;;24.85;31.87
33795;BME280;51430;52.242;21.118;2023-05-14T07:36:38;100938.87;;;25.04;31.63
33795;BME280;51430;52.242;21.118;2023-05-14T07:39:08;100935.07;;;24.92;30.74
33795;BME280;51430;52.242;21.118;2023-05-14T07:41:37;100934.63;;;25.26;31.65
33795;BME280;51430;52.242;21.118;2023-05-14T07:44:05;100930.52;;;26.04;30.54
33795;BME280;51430;52.242;21.118;2023-05-14T07:46:33;100931.23;;;25.78;29.21
33795;BME280;51430;52.242;21.118;2023-05-14T07:49:02;100925.54;;;25.00;29.64
33795;BME280;51430;52.242;21.118;2023-05-14T07:51:30;100923.03;;;24.89;30.08
33795;BME280;51430;52.242;21.118;2023-05-14T07:54:00;100923.98;;;25.65;29.93
33795;BME280;51430;52.242;21.118;2023-05-14T07:56:28;100924.40;;;26.20;29.49
33795;BME280;51430;52.242;21.118;2023-05-14T07:58:56;100924.86;;;26.25;28.65
33795;BME280;51430;52.242;21.118;2023-05-14T08:01:24;100924.07;;;25.80;28.49
33795;BME280;51430;52.242;21.118;2023-05-14T08:03:53;100918.98;;;25.60;28.53
33795;BME280;51430;52.242;21.118;2023-05-14T08:06:21;100912.64;;;25.35;29.26
33795;BME280;51430;52.242;21.118;2023-05-14T08:08:50;100910.55;;;25.24;29.04
33795;BME280;51430;52.242;21.118;2023-05-14T08:11:18;100909.63;;;25.32;29.42
33795;BME280;51430;52.242;21.118;2023-05-14T08:13:48;100904.48;;;24.95;29.14
33795;BME280;51430;52.242;21.118;2023-05-14T08:16:16;100902.58;;;24.75;29.81
33795;BME280;51430;52.242;21.118;2023-05-14T08:18:45;100901.59;;;24.72;29.52
33795;BME280;51430;52.242;21.118;2023-05-14T08:21:13;100898.34;;;25.25;29.52
33795;BME280;51430;52.242;21.118;2023-05-14T08:23:40;100901.80;;;25.69;29.37
33795;BME280;51430;52.242;21.118;2023-05-14T08:26:08;100901.22;;;26.10;28.76
33795;BME280;51430;52.242;21.118;2023-05-14T08:28:36;100897.05;;;25.87;28.55
33795;BME280;51430;52.242;21.118;2023-05-14T08:31:04;100891.84;;;25.22;29.04
33795;BME280;51430;52.242;21.118;2023-05-14T08:33:32;100889.70;;;25.84;28.94
33795;BME280;51430;52.242;21.118;2023-05-14T08:35:59;100898.21;;;25.96;28.29
33795;BME280;51430;52.242;21.118;2023-05-14T08:38:28;100892.98;;;26.16;28.25
33795;BME280;51430;52.242;21.118;2023-05-14T08:40:59;100892.63;;;26.45;27.86
33795;BME280;51430;52.242;21.118;2023-05-14T08:44:21;100891.52;;;26.60;27.82
33795;BME280;51430;52.242;21.118;2023-05-14T08:46:22;100890.34;;;26.17;28.17
33795;BME280;51430;52.242;21.118;2023-05-14T08:48:59;100883.38;;;25.98;28.90
33795;BME280;51430;52.242;21.118;2023-05-14T08:51:31;100882.64;;;25.58;28.88
33795;BME280;51430;52.242;21.118;2023-05-14T08:54:01;100884.92;;;26.25;28.13
33795;BME280;51430;52.242;21.118;2023-05-14T08:56:31;100879.96;;;26.08;27.81
33795;BME280;51430;52.242;21.118;2023-05-14T08:58:59;100880.33;;;25.69;28.48
33795;BME280;51430;52.242;21.118;2023-05-14T09:01:27;100879.17;;;25.75;28.33
33795;BME280;51430;52.242;21.118;2023-05-14T09:03:56;100877.71;;;26.36;28.41
33795;BME280;51430;52.242;21.118;2023-05-14T09:06:25;100872.45;;;27.38;27.67
33795;BME280;51430;52.242;21.118;2023-05-14T09:08:54;100868.52;;;26.88;27.03
33795;BME280;51430;52.242;21.118;2023-05-14T09:11:22;100871.20;;;27.53;26.76
33795;BME280;51430;52.242;21.118;2023-05-14T09:13:51;100873.98;;;27.86;26.45
33795;BME280;51430;52.242;21.118;2023-05-14T09:16:19;100879.41;;;27.02;26.34
33795;BME280;51430;52.242;21.118;2023-05-14T09:18:47;100871.31;;;27.04;26.35
33795;BME280;51430;52.242;21.118;2023-05-14T09:21:17;100868.19;;;26.98;26.27
33795;BME280;51430;52.242;21.118;2023-05-14T09:23:45;100869.67;;;27.43;26.37
33795;BME280;51430;52.242;21.118;2023-05-14T09:26:17;100869.91;;;26.99;26.32
33795;BME280;51430;52.242;21.118;2023-05-14T09:28:45;100865.64;;;26.71;26.66
33795;BME280;51430;52.242;21.118;2023-05-14T09:31:13;100861.04;;;26.85;26.42
33795;BME280;51430;52.242;21.118;2023-05-14T09:33:42;100865.73;;;27.09;26.57
33795;BME280;51430;52.242;21.118;2023-05-14T09:36:10;100861.21;;;26.95;26.42
33795;BME280;51430;52.242;21.118;2023-05-14T09:38:37;100864.14;;;27.00;26.67
33795;BME280;51430;52.242;21.118;2023-05-14T09:41:05;100858.13;;;27.19;26.22
33795;BME280;51430;52.242;21.118;2023-05-14T09:43:33;100862.08;;;27.24;25.80
33795;BME280;51430;52.242;21.118;2023-05-14T09:46:01;100858.65;;;26.93;25.85
33795;BME280;51430;52.242;21.118;2023-05-14T09:48:28;100860.70;;;27.29;25.70
33795;BME280;51430;52.242;21.118;2023-05-14T09:50:56;100856.80;;;27.46;25.29
33795;BME280;51430;52.242;21.118;2023-05-14T09:53:24;100849.67;;;27.02;25.61
33795;BME280;51430;52.242;21.118;2023-05-14T09:55:52;100854.85;;;27.70;25.29
33795;BME280;51430;52.242;21.118;2023-05-14T09:58:20;100860.22;;;27.99;24.94
33795;BME280;51430;52.242;21.118;2023-05-14T10:00:49;100856.15;;;27.94;24.32
33795;BME280;51430;52.242;21.118;2023-05-14T10:03:18;100853.42;;;28.05;24.06
33795;BME280;51430;52.242;21.118;2023-05-14T10:05:48;100844.39;;;27.99;24.78
33795;BME280;51430;52.242;21.118;2023-05-14T10:08:34;100844.24;;;28.02;24.27
33795;BME280;51430;52.242;21.118;2023-05-14T10:11:07;100840.33;;;27.35;24.54
33795;BME280;51430;52.242;21.118;2023-05-14T10:13:41;100837.02;;;26.87;25.07
33795;BME280;51430;52.242;21.118;2023-05-14T10:16:26;100839.05;;;26.92;25.02
33795;BME280;51430;52.242;21.118;2023-05-14T10:18:59;100837.74;;;26.80;25.00
33795;BME280;51430;52.242;21.118;2023-05-14T10:21:30;100832.68;;;27.77;24.74
33795;BME280;51430;52.242;21.118;2023-05-14T10:24:03;100831.94;;;27.88;24.51
33795;BME280;51430;52.242;21.118;2023-05-14T10:26:38;100834.23;;;27.84;24.29
33795;BME280;51430;52.242;21.118;2023-05-14T10:29:10;100829.61;;;27.92;24.67
33795;BME280;51430;52.242;21.118;2023-05-14T10:31:54;100826.68;;;28.72;24.32
33795;BME280;51430;52.242;21.118;2023-05-14T10:34:35;100822.23;;;28.96;24.13
33795;BME280;51430;52.242;21.118;2023-05-14T10:37:14;100824.06;;;28.96;23.78
33795;BME280;51430;52.242;21.118;2023-05-14T10:39:49;100821.66;;;27.71;24.47
33795;BME280;51430;52.242;21.118;2023-05-14T10:44:53;100822.88;;;27.20;25.15
33795;BME280;51430;52.242;21.118;2023-05-14T10:47:22;100810.45;;;26.86;25.73
33795;BME280;51430;52.242;21.118;2023-05-14T10:49:54;100809.81;;;27.77;25.28
33795;BME280;51430;52.242;21.118;2023-05-14T10:52:23;100811.77;;;28.51;24.83
33795;BME280;51430;52.242;21.118;2023-05-14T10:57:27;100795.06;;;27.81;24.33
33795;BME280;51430;52.242;21.118;2023-05-14T10:59:57;100794.17;;;26.43;25.93
33795;BME280;51430;52.242;21.118;2023-05-14T11:02:27;100795.08;;;26.62;26.33
33795;BME280;51430;52.242;21.118;2023-05-14T11:07:40;100783.92;;;27.26;25.65
33795;BME280;51430;52.242;21.118;2023-05-14T11:10:16;100785.33;;;27.13;25.88
33795;BME280;51430;52.242;21.118;2023-05-14T11:12:46;100777.56;;;27.80;25.93
33795;BME280;51430;52.242;21.118;2023-05-14T11:15:16;100774.45;;;27.33;26.12
33795;BME280;51430;52.242;21.118;2023-05-14T11:17:46;100758.77;;;26.97;26.18
33795;BME280;51430;52.242;21.118;2023-05-14T11:20:14;100757.76;;;27.58;25.97
33795;BME280;51430;52.242;21.118;2023-05-14T11:22:46;100752.66;;;28.05;25.68
33795;BME280;51430;52.242;21.118;2023-05-14T11:25:15;100754.66;;;28.70;25.02
33795;BME280;51430;52.242;21.118;2023-05-14T11:27:45;100755.64;;;29.16;24.10
33795;BME280;51430;52.242;21.118;2023-05-14T11:30:18;100754.79;;;29.26;24.23
33795;BME280;51430;52.242;21.118;2023-05-14T11:32:47;100744.79;;;30.21;23.64
33795;BME280;51430;52.242;21.118;2023-05-14T11:35:17;100739.69;;;30.79;22.77
33795;BME280;51430;52.242;21.118;2023-05-14T11:37:49;100735.08;;;30.92;22.61
33795;BME280;51430;52.242;21.118;2023-05-14T11:40:19;100740.36;;;31.10;22.65
33795;BME280;51430;52.242;21.118;2023-05-14T11:42:50;100739.02;;;31.46;22.10
33795;BME280;51430;52.242;21.118;2023-05-14T11:45:26;100737.95;;;30.29;23.14
33795;BME280;51430;52.242;21.118;2023-05-14T11:47:56;100734.10;;;30.95;23.00
33795;BME280;51430;52.242;21.118;2023-05-14T11:50:24;100725.08;;;32.20;22.51
33795;BME280;51430;52.242;21.118;2023-05-14T11:52:55;100720.09;;;33.43;21.30
33795;BME280;51430;52.242;21.118;2023-05-14T11:55:23;100709.64;;;31.54;21.58
33795;BME280;51430;52.242;21.118;2023-05-14T11:57:53;100699.04;;;30.20;22.64
33795;BME280;51430;52.242;21.118;2023-05-14T12:00:21;100691.92;;;30.10;22.46
33795;BME280;51430;52.242;21.118;2023-05-14T12:02:51;100690.48;;;29.90;23.13
33795;BME280;51430;52.242;21.118;2023-05-14T12:05:19;100691.08;;;30.31;22.66
33795;BME280;51430;52.242;21.118;2023-05-14T12:07:47;100693.04;;;30.03;23.00
33795;BME280;51430;52.242;21.118;2023-05-14T12:10:15;100686.05;;;29.77;23.48
33795;BME280;51430;52.242;21.118;2023-05-14T12:12:44;100680.84;;;30.68;22.57
33795;BME280;51430;52.242;21.118;2023-05-14T12:15:14;100679.08;;;30.87;22.74
33795;BME280;51430;52.242;21.118;2023-05-14T12:17:49;100673.13;;;32.04;22.45
33795;BME280;51430;52.242;21.118;2023-05-14T12:20:19;100669.42;;;32.90;21.64
33795;BME280;51430;52.242;21.118;2023-05-14T12:22:47;100674.51;;;33.35;21.35
33795;BME280;51430;52.242;21.118;2023-05-14T12:25:15;100671.65;;;33.54;21.24
33795;BME280;51430;52.242;21.118;2023-05-14T12:27:43;100661.25;;;33.68;20.90
33795;BME280;51430;52.242;21.118;2023-05-14T12:34:30;100662.68;;;30.69;22.56
33795;BME280;51430;52.242;21.118;2023-05-14T12:36:58;100652.95;;;29.37;23.58
33795;BME280;51430;52.242;21.118;2023-05-14T12:39:25;100647.45;;;28.21;24.71
33795;BME280;51430;52.242;21.118;2023-05-14T12:41:53;100645.74;;;27.57;25.75
33795;BME280;51430;52.242;21.118;2023-05-14T12:44:21;100636.41;;;26.51;26.48
33795;BME280;51430;52.242;21.118;2023-05-14T12:46:49;100641.15;;;26.19;26.76
33795;BME280;51430;52.242;21.118;2023-05-14T12:49:18;100638.37;;;26.71;26.48
33795;BME280;51430;52.242;21.118;2023-05-14T12:51:46;100645.50;;;27.89;25.52
33795;BME280;51430;52.242;21.118;2023-05-14T12:57:31;100637.30;;;29.33;24.10
33795;BME280;51430;52.242;21.118;2023-05-14T13:00:02;100629.50;;;30.14;23.26
33795;BME280;51430;52.242;21.118;2023-05-14T13:02:38;100640.39;;;29.66;23.21
33795;BME280;51430;52.242;21.118;2023-05-14T13:05:10;100627.27;;;29.18;23.74
33795;BME280;51430;52.242;21.118;2023-05-14T13:07:38;100620.85;;;28.93;23.69
33795;BME280;51430;52.242;21.118;2023-05-14T13:10:07;100620.93;;;28.17;23.86
33795;BME280;51430;52.242;21.118;2023-05-14T13:12:35;100620.63;;;27.13;25.03
33795;BME280;51430;52.242;21.118;2023-05-14T13:15:06;100611.84;;;27.29;24.85
33795;BME280;51430;52.242;21.118;2023-05-14T13:21:54;100619.23;;;27.99;24.68